Chislehurst, United Kingdom
Current Conditions -  °F | °C
As of 5:20 PM on Thursday 30 Oct 2014 (Local Time) from EGLC Reporting Station
Clear Clear  
Wind Chill: 63°   Ceiling: Unl
Heat Index: 63°   Visibility: 6mi
Dew Point: 57°   Wind: 5mph
Humidity: 82%   Direction: 150°SSE
Pressure: 30.09"   Gusts: NA
Location:  51.42°N, 0.07°E
Report Text: EGLC 301720Z 15004KT 130V190 CAVOK 17/14 Q1019
Loading
Personal Weather Stations






























Interactive Weather Map
Tropical Storm Tracking
New forecast layout! Learn more

10-Day Weather Forecast

Advertisements
Track Severe Weather on mobile